createdAt,value
2022-09-30T00:01:05.731Z,99568.84
2022-09-30T00:03:33.552Z,99571.63
2022-09-30T00:06:07.802Z,99578.22
2022-09-30T00:08:36.340Z,99574.28
2022-09-30T00:11:06.692Z,99572.63
2022-09-30T00:13:35.823Z,99574.84
2022-09-30T00:16:06.166Z,99579.28
2022-09-30T00:18:34.832Z,99584.59
2022-09-30T00:21:02.942Z,99580.00
2022-09-30T00:23:30.987Z,99586.72
2022-09-30T00:25:59.864Z,99579.44
2022-09-30T00:28:28.159Z,99579.31
2022-09-30T00:30:59.475Z,99576.78
2022-09-30T00:33:28.634Z,99569.94
2022-09-30T00:35:56.313Z,99574.69
2022-09-30T00:38:24.294Z,99583.75
2022-09-30T00:40:52.590Z,99579.28
2022-09-30T00:43:22.950Z,99581.66
2022-09-30T00:45:55.052Z,99589.63
2022-09-30T00:48:30.519Z,99587.38
2022-09-30T00:50:59.975Z,99587.91
2022-09-30T00:53:31.323Z,99592.13
2022-09-30T00:56:02.562Z,99587.78
2022-09-30T00:58:34.955Z,99593.06
2022-09-30T01:01:03.780Z,99592.34
2022-09-30T01:03:34.744Z,99584.81
2022-09-30T01:06:03.962Z,99594.44
2022-09-30T01:08:34.624Z,99593.72
2022-09-30T01:11:07.256Z,99597.50
2022-09-30T01:13:38.191Z,99596.78
2022-09-30T01:16:29.147Z,99603.47
2022-09-30T01:19:13.489Z,99599.13
2022-09-30T01:22:02.175Z,99597.84
2022-09-30T01:25:06.686Z,99602.00
2022-09-30T01:27:48.540Z,99600.16
2022-09-30T01:30:20.041Z,99602.13
2022-09-30T01:33:05.149Z,99600.88
2022-09-30T01:39:02.335Z,99607.19
2022-09-30T01:41:44.149Z,99610.56
2022-09-30T01:44:17.763Z,99606.78
2022-09-30T01:46:53.259Z,99607.44
2022-09-30T01:49:31.458Z,99612.84
2022-09-30T01:52:04.437Z,99614.63
2022-09-30T01:54:39.085Z,99604.34
2022-09-30T01:57:12.379Z,99613.97
2022-09-30T01:59:46.479Z,99610.94
2022-09-30T02:02:19.059Z,99610.56
2022-09-30T02:05:10.167Z,99612.50
2022-09-30T02:07:42.921Z,99614.31
2022-09-30T02:10:16.960Z,99622.53
2022-09-30T02:12:51.241Z,99619.16
2022-09-30T02:15:40.815Z,99623.75
2022-09-30T02:18:15.047Z,99625.13
2022-09-30T02:20:44.915Z,99625.63
2022-09-30T02:23:17.074Z,99627.47
2022-09-30T02:25:50.118Z,99638.66
2022-09-30T02:28:23.696Z,99643.00
2022-09-30T02:30:54.963Z,99642.75
2022-09-30T02:33:31.997Z,99650.56
2022-09-30T02:36:06.049Z,99647.41
2022-09-30T02:38:39.255Z,99649.91
2022-09-30T02:41:11.554Z,99656.22
2022-09-30T02:43:42.799Z,99655.50
2022-09-30T02:46:19.950Z,99652.97
2022-09-30T02:48:54.661Z,99654.09
2022-09-30T02:51:30.935Z,99661.97
2022-09-30T02:54:07.002Z,99658.53
2022-09-30T02:56:44.367Z,99666.50
2022-09-30T02:59:12.158Z,99660.19
2022-09-30T03:01:42.130Z,99659.47
2022-09-30T03:04:12.299Z,99653.81
2022-09-30T03:06:41.721Z,99658.03
2022-09-30T03:09:10.342Z,99653.22
2022-09-30T03:11:38.378Z,99662.41
2022-09-30T03:14:25.337Z,99660.16
2022-09-30T03:17:17.200Z,99658.69
2022-09-30T03:20:21.978Z,99663.41
2022-09-30T03:23:07.500Z,99658.72
2022-09-30T03:25:46.433Z,99666.56
2022-09-30T03:28:24.215Z,99668.13
2022-09-30T03:31:01.641Z,99681.28
2022-09-30T03:33:39.732Z,99681.06
2022-09-30T03:36:14.731Z,99683.44
2022-09-30T03:38:51.864Z,99677.41
2022-09-30T03:41:27.660Z,99669.56
2022-09-30T03:44:03.138Z,99671.19
2022-09-30T03:46:35.924Z,99670.34
2022-09-30T03:49:06.170Z,99669.63
2022-09-30T03:51:38.138Z,99667.34
2022-09-30T03:54:11.220Z,99672.06
2022-09-30T03:56:43.009Z,99672.53
2022-09-30T03:59:12.351Z,99679.09
2022-09-30T04:01:40.569Z,99675.13
2022-09-30T04:04:08.301Z,99684.28
2022-09-30T04:06:36.070Z,99681.28
2022-09-30T04:09:03.786Z,99683.94
2022-09-30T04:11:32.871Z,99682.84
2022-09-30T04:14:01.512Z,99692.72
2022-09-30T04:16:30.505Z,99686.09
2022-09-30T04:18:58.310Z,99691.16
2022-09-30T04:21:28.697Z,99698.16
2022-09-30T04:23:56.710Z,99693.81
2022-09-30T04:26:24.374Z,99703.94
2022-09-30T04:28:54.947Z,99702.25
2022-09-30T04:31:22.721Z,99705.25
2022-09-30T04:33:50.644Z,99704.28
2022-09-30T04:36:18.732Z,99711.97
2022-09-30T04:38:46.429Z,99714.00
2022-09-30T04:41:16.040Z,99723.53
2022-09-30T04:43:46.644Z,99720.16
2022-09-30T04:46:15.938Z,99726.38
2022-09-30T04:48:45.918Z,99727.44
2022-09-30T04:51:14.049Z,99735.09
2022-09-30T04:53:42.352Z,99736.91
2022-09-30T04:56:11.008Z,99740.88
2022-09-30T04:58:38.922Z,99746.88
2022-09-30T05:01:08.913Z,99744.44
2022-09-30T05:03:38.500Z,99744.97
2022-09-30T05:06:07.368Z,99753.72
2022-09-30T05:08:35.633Z,99751.81
2022-09-30T05:11:08.426Z,99752.28
2022-09-30T05:13:38.917Z,99744.44
2022-09-30T05:16:17.126Z,99753.34
2022-09-30T05:18:47.076Z,99755.88
2022-09-30T05:21:17.140Z,99765.72
2022-09-30T05:23:44.852Z,99766.59
2022-09-30T05:26:13.076Z,99764.88
2022-09-30T05:28:41.106Z,99783.97
2022-09-30T05:31:09.264Z,99781.56
2022-09-30T05:33:37.455Z,99780.38
2022-09-30T05:36:08.416Z,99780.03
2022-09-30T05:38:36.456Z,99787.25
2022-09-30T05:41:11.180Z,99792.53
2022-09-30T05:43:39.663Z,99795.19
2022-09-30T05:46:07.486Z,99806.41
2022-09-30T05:48:35.546Z,99814.69
2022-09-30T05:51:03.708Z,99820.06
2022-09-30T05:53:33.409Z,99826.31
2022-09-30T05:56:01.393Z,99826.22
2022-09-30T05:58:29.118Z,99836.78
2022-09-30T06:00:58.421Z,99837.03
2022-09-30T06:03:29.568Z,99842.09
2022-09-30T06:06:11.631Z,99843.16
2022-09-30T06:08:41.378Z,99839.44
2022-09-30T06:11:12.770Z,99835.41
2022-09-30T06:13:40.977Z,99844.25
2022-09-30T06:16:09.865Z,99836.88
2022-09-30T06:18:41.434Z,99844.84
2022-09-30T06:21:12.197Z,99846.31
2022-09-30T06:23:42.005Z,99852.38
2022-09-30T06:26:11.641Z,99845.56
2022-09-30T06:28:39.599Z,99847.59
2022-09-30T06:31:08.297Z,99852.63
2022-09-30T06:33:36.354Z,99854.34
2022-09-30T06:36:06.124Z,99861.38
2022-09-30T06:38:35.859Z,99867.06
2022-09-30T06:41:05.704Z,99865.66
2022-09-30T06:43:40.036Z,99872.06
2022-09-30T06:46:17.727Z,99880.84
2022-09-30T06:48:48.201Z,99885.81
2022-09-30T06:51:15.959Z,99894.44
2022-09-30T06:53:43.664Z,99892.38
2022-09-30T06:56:12.854Z,99892.16
2022-09-30T06:58:41.323Z,99900.91
2022-09-30T07:01:09.041Z,99896.00
2022-09-30T07:03:37.299Z,99892.47
2022-09-30T07:06:07.050Z,99889.63
2022-09-30T07:08:36.616Z,99892.19
2022-09-30T07:11:11.918Z,99888.44
2022-09-30T07:13:42.807Z,99894.72
2022-09-30T07:16:12.037Z,99898.81
2022-09-30T07:18:42.262Z,99900.38
2022-09-30T07:21:10.823Z,99905.53
2022-09-30T07:23:38.595Z,99914.25
2022-09-30T07:26:07.858Z,99915.09
2022-09-30T07:28:39.344Z,99912.25
2022-09-30T07:31:31.824Z,99918.69
2022-09-30T07:33:59.881Z,99917.75
2022-09-30T07:36:32.690Z,99930.22
2022-09-30T07:39:05.411Z,99935.06
2022-09-30T07:41:34.560Z,99942.41
2022-09-30T07:44:02.986Z,99937.47
2022-09-30T07:46:34.819Z,99938.91
2022-09-30T07:49:05.557Z,99943.81
2022-09-30T07:51:36.220Z,99937.38
2022-09-30T07:54:06.461Z,99939.41
2022-09-30T07:56:57.758Z,99939.25
2022-09-30T07:59:24.638Z,99934.28
2022-09-30T08:01:54.224Z,99929.72
2022-09-30T08:04:22.735Z,99937.59
2022-09-30T08:06:52.826Z,99937.53
2022-09-30T08:09:22.505Z,99943.66
2022-09-30T08:11:51.017Z,99944.56
2022-09-30T08:14:21.000Z,99952.22
2022-09-30T08:16:49.281Z,99950.22
2022-09-30T08:19:21.978Z,99951.59
2022-09-30T08:21:50.805Z,99950.44
2022-09-30T08:24:18.706Z,99960.66
2022-09-30T08:26:47.014Z,99962.22
2022-09-30T08:29:20.671Z,99964.97
2022-09-30T08:31:57.881Z,99961.72
2022-09-30T08:34:27.356Z,99965.72
2022-09-30T08:36:59.470Z,99956.38
2022-09-30T08:39:27.741Z,99944.69
2022-09-30T08:42:13.887Z,99962.75
2022-09-30T08:45:20.812Z,99955.84
2022-09-30T08:47:57.543Z,99957.22
2022-09-30T08:50:34.810Z,99962.94
2022-09-30T08:53:06.500Z,99961.34
2022-09-30T08:55:41.149Z,99967.22
2022-09-30T08:58:20.227Z,99962.13
2022-09-30T09:00:50.383Z,99968.78
2022-09-30T09:03:20.450Z,99968.53
2022-09-30T09:06:00.269Z,99957.69
2022-09-30T09:08:40.907Z,99959.97
2022-09-30T09:11:17.150Z,99960.66
2022-09-30T09:13:53.014Z,99966.41
2022-09-30T09:16:31.029Z,99969.59
2022-09-30T09:19:02.734Z,99970.59
2022-09-30T09:21:47.013Z,99969.53
2022-09-30T09:24:19.025Z,99968.25
2022-09-30T09:26:48.498Z,99966.53
2022-09-30T09:29:33.478Z,99963.28
2022-09-30T09:32:03.415Z,99965.47
2022-09-30T09:34:33.217Z,99970.50
2022-09-30T09:37:19.000Z,99970.38
2022-09-30T09:40:15.384Z,99975.78
2022-09-30T09:43:06.443Z,99975.25
2022-09-30T09:45:39.857Z,99971.06
2022-09-30T09:48:12.041Z,99972.25
2022-09-30T09:50:49.545Z,99973.94
2022-09-30T09:53:43.413Z,99976.28
2022-09-30T09:56:29.726Z,99980.47
2022-09-30T09:59:12.175Z,99975.09
2022-09-30T10:01:43.092Z,99976.06
2022-09-30T10:04:16.526Z,99975.75
2022-09-30T10:06:47.861Z,99978.72
2022-09-30T10:09:32.519Z,99979.34
2022-09-30T10:12:28.419Z,99977.09
2022-09-30T10:15:06.424Z,99971.44
2022-09-30T10:17:36.455Z,99964.59
2022-09-30T10:20:18.102Z,99972.44
2022-09-30T10:22:45.929Z,99961.56
2022-09-30T10:25:38.784Z,99966.19
2022-09-30T10:28:23.345Z,99962.88
2022-09-30T10:30:56.281Z,99961.31
2022-09-30T10:33:35.002Z,99961.09
2022-09-30T10:36:09.739Z,99958.41
2022-09-30T10:38:45.799Z,99953.03
2022-09-30T10:41:21.770Z,99954.91
2022-09-30T10:43:52.585Z,99943.44
2022-09-30T10:46:26.922Z,99944.06
2022-09-30T10:48:56.789Z,99954.81
2022-09-30T10:51:28.517Z,99953.13
2022-09-30T10:53:57.729Z,99953.59
2022-09-30T10:56:41.151Z,99964.28
2022-09-30T10:59:19.923Z,99952.13
2022-09-30T11:01:53.789Z,99955.00
2022-09-30T11:04:30.795Z,99947.75
2022-09-30T11:07:09.876Z,99953.63
2022-09-30T11:09:44.106Z,99944.47
2022-09-30T11:12:21.563Z,99948.13
2022-09-30T11:15:14.366Z,99937.13
2022-09-30T11:17:51.773Z,99934.38
2022-09-30T11:20:23.498Z,99948.69
2022-09-30T11:22:58.626Z,99953.03
2022-09-30T11:25:40.940Z,99953.97
2022-09-30T11:28:54.221Z,99957.44
2022-09-30T11:31:31.343Z,99944.53
2022-09-30T11:34:15.322Z,99950.63
2022-09-30T11:36:53.852Z,99942.66
2022-09-30T11:39:51.297Z,99932.75
2022-09-30T11:42:26.365Z,99929.03
2022-09-30T11:45:22.648Z,99925.50
2022-09-30T11:48:08.823Z,99933.84
2022-09-30T11:51:01.071Z,99934.00
2022-09-30T11:53:39.631Z,99942.16
2022-09-30T11:56:17.091Z,99943.75
2022-09-30T11:58:48.816Z,99935.19
2022-09-30T12:01:26.075Z,99937.59
2022-09-30T12:04:01.972Z,99945.22
2022-09-30T12:06:35.201Z,99946.28
2022-09-30T12:09:15.342Z,99943.69
2022-09-30T12:11:49.760Z,99939.50
2022-09-30T12:14:24.472Z,99946.75
2022-09-30T12:16:56.648Z,99944.72
2022-09-30T12:19:32.276Z,99946.00
2022-09-30T12:22:06.563Z,99948.00
2022-09-30T12:24:37.929Z,99951.94
2022-09-30T12:27:06.679Z,99950.13
2022-09-30T12:30:09.816Z,99950.91
2022-09-30T12:32:49.887Z,99948.94
2022-09-30T12:35:43.457Z,99950.50
2022-09-30T12:38:31.292Z,99956.97
2022-09-30T12:41:09.219Z,99956.03
2022-09-30T12:44:01.913Z,99955.47
2022-09-30T12:47:02.523Z,99950.63
2022-09-30T12:49:34.213Z,99958.06
2022-09-30T12:52:07.882Z,99957.13
2022-09-30T12:54:38.694Z,99958.91
2022-09-30T12:57:10.306Z,99952.34
2022-09-30T13:02:32.783Z,99969.28
2022-09-30T13:05:47.835Z,99958.69
2022-09-30T13:08:44.809Z,99959.66
2022-09-30T13:11:37.469Z,99961.03
2022-09-30T13:14:22.302Z,99964.66
2022-09-30T13:17:05.221Z,99964.38
2022-09-30T13:19:36.351Z,99959.91
2022-09-30T13:22:53.850Z,99958.91
2022-09-30T13:25:23.042Z,99958.09
2022-09-30T13:27:53.904Z,99966.72
2022-09-30T13:30:41.441Z,99965.59
2022-09-30T13:33:29.781Z,99960.28
2022-09-30T13:36:09.654Z,99965.66
2022-09-30T13:38:41.155Z,99963.84
2022-09-30T13:41:24.344Z,99962.16
2022-09-30T13:44:03.583Z,99965.94
2022-09-30T13:46:36.970Z,99964.84
2022-09-30T13:49:12.348Z,99959.94
2022-09-30T13:51:41.763Z,99968.75
2022-09-30T13:54:19.052Z,99962.66
2022-09-30T13:56:48.581Z,99960.59
2022-09-30T13:59:28.342Z,99964.84
2022-09-30T14:02:27.190Z,99960.06
2022-09-30T14:05:26.995Z,99958.19
2022-09-30T14:08:12.330Z,99951.56
2022-09-30T14:11:03.412Z,99939.94
2022-09-30T14:13:51.005Z,99944.03
2022-09-30T14:16:49.698Z,99942.94
2022-09-30T14:19:32.811Z,99945.63
2022-09-30T14:22:05.580Z,99935.59
2022-09-30T14:24:37.777Z,99939.78
2022-09-30T14:27:18.969Z,99949.78
2022-09-30T14:30:12.842Z,99946.06
2022-09-30T14:32:47.024Z,99946.25
2022-09-30T14:35:18.284Z,99957.03
2022-09-30T14:37:52.051Z,99950.69
2022-09-30T14:40:25.846Z,99952.97
2022-09-30T14:42:55.244Z,99957.06
2022-09-30T14:45:28.315Z,99954.97
2022-09-30T14:48:01.660Z,99959.72
2022-09-30T14:50:32.215Z,99957.03
2022-09-30T14:53:02.862Z,99947.72
2022-09-30T14:55:33.422Z,99952.06
2022-09-30T14:58:22.672Z,99943.25
2022-09-30T15:01:01.547Z,99943.94
2022-09-30T15:03:30.881Z,99942.22
2022-09-30T15:05:59.056Z,99936.22
2022-09-30T15:08:27.028Z,99941.94
2022-09-30T15:10:57.141Z,99932.50
2022-09-30T15:13:27.647Z,99933.28
2022-09-30T15:15:56.800Z,99939.28
2022-09-30T15:18:45.381Z,99926.31
2022-09-30T15:21:15.741Z,99918.94
2022-09-30T15:23:45.955Z,99916.81
2022-09-30T15:26:15.103Z,99919.13
2022-09-30T15:28:43.255Z,99919.06
2022-09-30T15:31:22.580Z,99917.56
2022-09-30T15:33:50.618Z,99913.03
2022-09-30T15:36:19.974Z,99915.31
2022-09-30T15:38:49.532Z,99923.25
2022-09-30T15:41:17.812Z,99909.47
2022-09-30T15:43:50.352Z,99912.88
2022-09-30T15:46:26.277Z,99918.28
2022-09-30T15:48:55.939Z,99919.88
2022-09-30T15:51:26.645Z,99922.78
2022-09-30T15:54:00.328Z,99925.28
2022-09-30T15:56:35.434Z,99922.97
2022-09-30T15:59:06.479Z,99918.34
2022-09-30T16:01:37.854Z,99916.72
2022-09-30T16:04:11.022Z,99918.66
2022-09-30T16:06:46.103Z,99917.13
2022-09-30T16:09:31.938Z,99914.16
2022-09-30T16:12:08.736Z,99910.34
2022-09-30T16:14:43.989Z,99905.63
2022-09-30T16:17:19.282Z,99911.00
2022-09-30T16:20:06.660Z,99905.97
2022-09-30T16:22:37.816Z,99908.19
2022-09-30T16:25:32.484Z,99909.75
2022-09-30T16:28:02.201Z,99920.88
2022-09-30T16:30:32.114Z,99923.66
2022-09-30T16:33:05.306Z,99914.88
2022-09-30T16:35:43.606Z,99927.59
2022-09-30T16:38:14.970Z,99924.31
2022-09-30T16:40:42.772Z,99911.91
2022-09-30T16:43:11.617Z,99924.03
2022-09-30T16:45:39.906Z,99922.91
2022-09-30T16:48:16.635Z,99924.47
2022-09-30T16:50:50.360Z,99922.00
2022-09-30T16:53:18.180Z,99937.28
2022-09-30T16:55:46.016Z,99940.53
2022-09-30T16:58:14.174Z,99934.66
2022-09-30T17:00:45.357Z,99934.81
2022-09-30T17:03:16.446Z,99934.00
2022-09-30T17:05:45.686Z,99943.34
2022-09-30T17:08:15.682Z,99940.84
2022-09-30T17:10:46.190Z,99933.09
2022-09-30T17:13:16.244Z,99941.47
2022-09-30T17:15:48.670Z,99943.31
2022-09-30T17:18:18.042Z,99944.47
2022-09-30T17:20:52.500Z,99948.13
2022-09-30T17:23:21.591Z,99956.97
2022-09-30T17:25:49.490Z,99957.47
2022-09-30T17:28:17.608Z,99959.94
2022-09-30T17:30:47.826Z,99950.72
2022-09-30T17:33:17.750Z,99962.41
2022-09-30T17:35:45.599Z,99964.03
2022-09-30T17:38:14.442Z,99956.63
2022-09-30T17:40:59.838Z,99953.34
2022-09-30T17:43:27.526Z,99963.72
2022-09-30T17:46:00.626Z,99961.81
2022-09-30T17:48:29.845Z,99971.31
2022-09-30T17:50:57.637Z,99970.44
2022-09-30T17:53:25.363Z,99976.53
2022-09-30T17:56:03.350Z,99969.50
2022-09-30T17:58:31.205Z,99983.28
2022-09-30T18:00:59.964Z,99987.19
2022-09-30T18:03:29.213Z,99992.22
2022-09-30T18:06:00.053Z,99992.13
2022-09-30T18:08:28.553Z,100001.75
2022-09-30T18:10:57.313Z,100007.13
2022-09-30T18:13:25.159Z,100004.38
2022-09-30T18:15:52.972Z,100003.28
2022-09-30T18:18:20.682Z,100002.72
2022-09-30T18:20:51.042Z,100004.75
2022-09-30T18:23:19.570Z,100008.47
2022-09-30T18:25:49.645Z,100010.88
2022-09-30T18:28:17.865Z,100013.59
2022-09-30T18:30:46.647Z,100014.16
2022-09-30T18:33:17.246Z,100015.59
2022-09-30T18:35:46.585Z,100018.41
2022-09-30T18:38:15.681Z,100014.47
2022-09-30T18:40:45.666Z,100014.22
2022-09-30T18:43:15.139Z,100012.97
2022-09-30T18:45:43.905Z,100009.72
2022-09-30T18:48:12.067Z,100006.09
2022-09-30T18:50:39.925Z,100000.34
2022-09-30T18:53:09.941Z,100004.28
2022-09-30T18:55:39.703Z,100003.19
2022-09-30T18:58:07.582Z,99991.81
2022-09-30T19:00:35.430Z,100002.47
2022-09-30T19:03:03.282Z,99998.41
2022-09-30T19:05:42.941Z,99998.78
2022-09-30T19:08:10.764Z,99998.94
2022-09-30T19:10:42.718Z,100009.59
2022-09-30T19:13:10.641Z,100011.56
2022-09-30T19:15:39.267Z,100008.34
2022-09-30T19:18:07.232Z,100011.84
2022-09-30T19:20:37.322Z,100004.09
2022-09-30T19:23:06.511Z,100010.00
2022-09-30T19:25:42.781Z,100012.53
2022-09-30T19:28:10.569Z,100024.31
2022-09-30T19:30:42.088Z,100020.50
2022-09-30T19:33:09.898Z,100027.41
2022-09-30T19:35:40.762Z,100016.28
2022-09-30T19:38:09.302Z,100010.66
2022-09-30T19:40:37.546Z,100012.19
2022-09-30T19:43:08.120Z,100017.94
2022-09-30T19:45:36.255Z,100017.66
2022-09-30T19:48:04.250Z,100016.34
2022-09-30T19:50:41.194Z,100023.31
2022-09-30T19:53:09.398Z,100025.44
2022-09-30T19:55:49.052Z,100026.81
2022-09-30T19:58:20.993Z,100025.28
2022-09-30T20:00:54.764Z,100024.69
2022-09-30T20:03:24.334Z,100022.41
2022-09-30T20:05:57.891Z,100025.47
2022-09-30T20:08:25.760Z,100030.50
2022-09-30T20:10:53.734Z,100031.75
2022-09-30T20:13:22.800Z,100035.91
2022-09-30T20:15:52.253Z,100042.88
2022-09-30T20:18:20.661Z,100033.81
2022-09-30T20:20:48.928Z,100035.22
2022-09-30T20:23:17.203Z,100032.91
2022-09-30T20:25:45.021Z,100028.44
2022-09-30T20:28:13.012Z,100035.34
2022-09-30T20:30:45.656Z,100034.91
2022-09-30T20:33:15.499Z,100030.66
2022-09-30T20:35:43.357Z,100028.13
2022-09-30T20:38:14.261Z,100030.78
2022-09-30T20:40:42.239Z,100021.78
2022-09-30T20:43:10.921Z,100026.50
2022-09-30T20:45:41.056Z,100031.09
2022-09-30T20:48:10.383Z,100028.00
2022-09-30T20:50:43.166Z,100035.63
2022-09-30T20:53:12.698Z,100044.22
2022-09-30T20:55:43.444Z,100053.03
2022-09-30T20:58:13.325Z,100054.84
2022-09-30T21:00:42.614Z,100065.38
2022-09-30T21:03:14.464Z,100066.59
2022-09-30T21:05:42.291Z,100066.13
2022-09-30T21:08:10.113Z,100069.66
2022-09-30T21:10:38.823Z,100074.38
2022-09-30T21:13:11.386Z,100079.09
2022-09-30T21:15:39.563Z,100075.00
2022-09-30T21:18:07.728Z,100070.16
2022-09-30T21:20:37.372Z,100074.78
2022-09-30T21:23:05.238Z,100063.91
2022-09-30T21:25:33.411Z,100065.38
2022-09-30T21:28:01.687Z,100060.16
2022-09-30T21:30:29.915Z,100055.00
2022-09-30T21:32:57.717Z,100052.34
2022-09-30T21:35:31.528Z,100045.59
2022-09-30T21:38:00.634Z,100037.84
2022-09-30T21:40:28.910Z,100036.75
2022-09-30T21:42:56.679Z,100039.78
2022-09-30T21:45:37.424Z,100039.13
2022-09-30T21:48:12.389Z,100038.88
2022-09-30T21:50:41.163Z,100032.34
2022-09-30T21:53:10.249Z,100028.56
2022-09-30T21:55:38.044Z,100028.06
2022-09-30T21:58:05.851Z,100019.84
2022-09-30T22:00:33.602Z,100012.72
2022-09-30T22:03:01.306Z,100008.38
2022-09-30T22:05:29.218Z,100005.13
2022-09-30T22:07:59.483Z,100020.25
2022-09-30T22:10:37.884Z,100030.88
2022-09-30T22:13:05.573Z,100033.06
2022-09-30T22:15:34.966Z,100020.28
2022-09-30T22:18:02.779Z,100024.03
2022-09-30T22:20:42.820Z,100026.47
2022-09-30T22:23:10.633Z,100025.88
2022-09-30T22:25:40.286Z,100028.91
2022-09-30T22:28:08.398Z,100036.28
2022-09-30T22:30:36.246Z,100035.69
2022-09-30T22:33:21.810Z,100031.31
2022-09-30T22:36:06.889Z,100035.06
2022-09-30T22:38:34.636Z,100034.63
2022-09-30T22:41:03.755Z,100029.19
2022-09-30T22:43:33.506Z,100031.34
2022-09-30T22:46:02.706Z,100035.22
2022-09-30T22:48:31.094Z,100024.88
2022-09-30T22:50:59.423Z,100022.44
2022-09-30T22:53:28.075Z,100020.72
2022-09-30T22:55:56.275Z,100008.53
2022-09-30T22:58:25.634Z,100012.19
2022-09-30T23:00:55.046Z,100010.59
2022-09-30T23:03:23.325Z,100018.56
2022-09-30T23:05:51.142Z,100023.28
2022-09-30T23:08:19.379Z,100030.41
2022-09-30T23:10:49.798Z,100025.34
2022-09-30T23:13:20.027Z,100016.75
2022-09-30T23:15:49.314Z,100015.94
2022-09-30T23:18:17.994Z,100014.09
2022-09-30T23:20:55.187Z,100015.94
2022-09-30T23:23:23.039Z,100017.72
2022-09-30T23:25:58.869Z,100021.97
2022-09-30T23:28:26.716Z,100027.50
2022-09-30T23:30:57.228Z,100029.22
2022-09-30T23:33:24.931Z,100024.13
2022-09-30T23:35:52.622Z,100028.81
2022-09-30T23:38:20.348Z,100021.94
2022-09-30T23:40:50.397Z,100021.13
2022-09-30T23:43:20.579Z,100024.13
2022-09-30T23:45:48.577Z,100014.69
2022-09-30T23:48:17.837Z,100012.19
2022-09-30T23:50:51.089Z,100016.63
2022-09-30T23:53:19.301Z,100011.44
2022-09-30T23:55:55.292Z,100010.84
2022-09-30T23:58:23.140Z,100011.94
